Time;durP1;ratioP1;P1;durP2;ratioP2;P2;SDS_P1;SDS_P2;PMS_P1;PMS_P2;Temp;Humidity;BMP_temperature;BMP_pressure;BME280_temperature;BME280_humidity;BME280_pressure;Samples;Min_cycle;Max_cycle;Signal;HPM_P1;HPM_P2
2024/04/12 04:44:53;;;;;;;;;;;13.10;87.80;;;;;;4733502;30;20023;-75
2024/04/12 04:47:23;;;;;;;;;;;13.50;88.00;;;;;;4735318;30;19933;-70
2024/04/12 04:49:48;;;;;;;;;;;13.10;87.90;;;;;;4748558;30;19930;-71
2024/04/12 04:52:15;;;;;;;;;;;13.10;87.90;;;;;;4734649;30;19933;-78
2024/04/12 04:54:41;;;;;;;;;;;13.10;87.90;;;;;;4733629;30;19926;-79
2024/04/12 04:57:06;;;;;;;;;;;13.10;88.00;;;;;;4737871;30;19948;-78
2024/04/12 04:59:32;;;;;;;;;;;13.10;88.00;;;;;;4733971;30;21383;-78
2024/04/12 05:02:00;;;;;;;;;;;13.10;88.00;;;;;;4730764;30;20390;-78
2024/04/12 05:04:31;;;;;;;;;;;13.10;88.00;;;;;;4745751;30;19930;-78
2024/04/12 05:06:58;;;;;;;;;;;13.10;88.00;;;;;;4730275;30;19932;-78
2024/04/12 05:09:27;;;;;;;;;;;13.10;88.00;;;;;;4735279;30;20405;-78
2024/04/12 05:11:53;;;;;;;;;;;13.10;88.00;;;;;;4723890;30;19937;-78
2024/04/12 05:17:03;;;;;;;;;;;13.10;87.90;;;;;;4732058;30;19930;-78
2024/04/12 05:19:33;;;;;;;;;;;13.10;87.80;;;;;;4730994;30;19957;-78
2024/04/12 05:21:59;;;;;;;;;;;13.10;87.80;;;;;;4732191;30;19936;-77
2024/04/12 05:24:25;;;;;;;;;;;13.10;87.80;;;;;;4735188;30;20016;-77
2024/04/12 05:27:01;;;;;;;;;;;13.10;87.80;;;;;;4735146;30;20040;-78
2024/04/12 05:29:28;;;;;;;;;;;13.10;87.80;;;;;;4735590;30;19981;-78
2024/04/12 05:31:56;;;;;;;;;;;13.00;87.80;;;;;;4735405;30;20286;-77
2024/04/12 05:34:22;;;;;;;;;;;13.10;87.80;;;;;;4735488;30;19969;-77
2024/04/12 05:36:48;;;;;;;;;;;13.00;87.80;;;;;;4733659;30;19933;-78
2024/04/12 05:39:14;;;;;;;;;;;13.10;87.90;;;;;;4734929;30;19921;-78
2024/04/12 05:41:44;;;;;;;;;;;13.00;87.90;;;;;;4734707;30;20056;-77
2024/04/12 05:44:10;;;;;;;;;;;13.10;87.90;;;;;;4731687;30;19957;-77
2024/04/12 05:46:42;;;;;;;;;;;13.10;87.90;;;;;;4732540;30;19926;-78
2024/04/12 05:49:11;;;;;;;;;;;13.00;87.90;;;;;;4733099;30;19963;-79
2024/04/12 05:51:38;;;;;;;;;;;13.10;87.90;;;;;;4733011;30;20634;-79
2024/04/12 05:54:15;;;;;;;;;;;13.00;87.90;;;;;;4732710;30;19970;-79
2024/04/12 05:56:44;;;;;;;;;;;13.00;87.90;;;;;;4719959;30;19930;-80
2024/04/12 05:59:13;;;;;;;;;;;13.00;87.90;;;;;;4733120;30;20037;-79
2024/04/12 06:01:46;;;;;;;;;;;13.00;87.90;;;;;;4719758;30;19926;-78
2024/04/12 06:04:23;;;;;;;;;;;13.00;87.90;;;;;;4731820;30;20353;-78
2024/04/12 06:06:50;;;;;;;;;;;13.00;87.90;;;;;;4719109;30;20021;-79
2024/04/12 06:09:20;;;;;;;;;;;13.00;87.90;;;;;;4719488;30;19930;-79
2024/04/12 06:11:56;;;;;;;;;;;13.00;87.90;;;;;;4719544;30;19976;-79
2024/04/12 06:14:22;;;;;;;;;;;13.00;87.90;;;;;;4729347;30;19930;-79
2024/04/12 06:16:48;;;;;;;;;;;13.00;87.90;;;;;;4741794;30;19922;-79
2024/04/12 06:19:14;;;;;;;;;;;13.00;87.90;;;;;;4745463;30;19922;-79
2024/04/12 06:21:45;;;;;;;;;;;13.00;88.00;;;;;;4742255;30;19931;-78
2024/04/12 06:24:25;;;;;;;;;;;13.00;88.00;;;;;;4730315;30;20075;-79
2024/04/12 06:26:51;;;;;;;;;;;13.00;88.00;;;;;;4725459;30;20276;-81
2024/04/12 06:29:17;;;;;;;;;;;13.10;88.10;;;;;;4730511;30;19922;-77
2024/04/12 06:31:46;;;;;;;;;;;13.10;88.20;;;;;;4751291;30;20023;-78
2024/04/12 06:34:17;;;;;;;;;;;13.10;88.20;;;;;;4727325;30;20306;-78
2024/04/12 06:36:46;;;;;;;;;;;13.10;88.30;;;;;;4725877;30;19927;-77
2024/04/12 06:39:12;;;;;;;;;;;13.10;88.30;;;;;;4725149;30;19930;-77
2024/04/12 06:41:38;;;;;;;;;;;13.20;88.30;;;;;;4722758;30;19930;-77
2024/04/12 06:44:03;;;;;;;;;;;13.20;88.40;;;;;;4745767;30;19930;-77
2024/04/12 06:46:31;;;;;;;;;;;13.20;88.30;;;;;;4737901;30;20029;-77
2024/04/12 06:49:07;;;;;;;;;;;13.20;88.20;;;;;;4738016;30;20318;-77
2024/04/12 06:54:28;;;;;;;;;;;13.20;88.20;;;;;;4733221;30;19933;-77
2024/04/12 06:56:55;;;;;;;;;;;13.20;88.20;;;;;;4733111;30;19952;-77
2024/04/12 06:59:26;;;;;;;;;;;13.20;88.20;;;;;;4733394;30;19930;-77
2024/04/12 07:01:54;;;;;;;;;;;13.20;88.30;;;;;;4719949;30;19933;-77
2024/04/12 07:04:19;;;;;;;;;;;13.30;88.30;;;;;;4733390;30;19926;-77
2024/04/12 07:06:45;;;;;;;;;;;13.20;88.20;;;;;;4732775;30;19991;-78
2024/04/12 07:09:10;;;;;;;;;;;13.20;88.20;;;;;;4733558;30;19933;-77
2024/04/12 07:11:42;;;;;;;;;;;13.30;88.20;;;;;;4734732;30;19926;-78
2024/04/12 07:14:08;;;;;;;;;;;13.30;88.20;;;;;;4718938;30;20402;-77
2024/04/12 07:16:35;;;;;;;;;;;13.40;88.20;;;;;;4733553;30;20013;-77
2024/04/12 07:19:09;;;;;;;;;;;13.40;88.20;;;;;;4732058;30;19937;-77
2024/04/12 07:21:35;;;;;;;;;;;13.50;88.20;;;;;;4732378;30;19930;-79
2024/04/12 07:24:02;;;;;;;;;;;13.60;88.20;;;;;;4731873;30;19936;-78
2024/04/12 07:26:29;;;;;;;;;;;13.60;88.10;;;;;;4733208;30;20042;-76
2024/04/12 07:28:59;;;;;;;;;;;13.80;88.10;;;;;;4731888;30;19937;-80
2024/04/12 07:31:25;;;;;;;;;;;13.80;88.00;;;;;;4733947;30;20275;-81
2024/04/12 07:33:51;;;;;;;;;;;13.80;87.80;;;;;;4732669;30;19930;-80
2024/04/12 07:36:19;;;;;;;;;;;13.80;87.60;;;;;;4732111;30;20335;-76
2024/04/12 07:38:49;;;;;;;;;;;13.80;87.40;;;;;;4732624;30;19934;-78
2024/04/12 07:41:15;;;;;;;;;;;13.90;87.40;;;;;;4733351;30;19926;-79
2024/04/12 07:43:44;;;;;;;;;;;13.90;87.30;;;;;;4727509;30;19942;-79
2024/04/12 07:46:14;;;;;;;;;;;14.00;87.30;;;;;;4732243;30;19922;-78
2024/04/12 07:48:48;;;;;;;;;;;14.00;87.30;;;;;;4723277;30;19922;-79
2024/04/12 07:51:20;;;;;;;;;;;14.00;87.30;;;;;;4747251;30;19926;-79
2024/04/12 07:53:47;;;;;;;;;;;14.00;87.00;;;;;;4730574;30;20619;-79
2024/04/12 07:56:16;;;;;;;;;;;14.00;86.80;;;;;;4723771;30;19937;-78
2024/04/12 07:58:43;;;;;;;;;;;14.10;86.90;;;;;;4744824;30;20513;-77
2024/04/12 08:01:25;;;;;;;;;;;14.10;86.80;;;;;;4745317;30;19937;-79
2024/04/12 08:03:56;;;;;;;;;;;14.20;86.80;;;;;;4746285;30;20538;-77
2024/04/12 08:06:37;;;;;;;;;;;14.20;86.70;;;;;;4745889;30;19932;-77
2024/04/12 08:09:06;;;;;;;;;;;14.30;86.70;;;;;;4745197;30;19933;-80
2024/04/12 08:11:35;;;;;;;;;;;14.50;86.60;;;;;;4729364;30;19930;-80
2024/04/12 08:14:19;;;;;;;;;;;14.60;86.70;;;;;;4723864;30;19930;-78
2024/04/12 08:16:52;;;;;;;;;;;14.80;86.30;;;;;;4724008;30;19970;-79
2024/04/12 08:19:37;;;;;;;;;;;15.00;85.60;;;;;;4724131;30;19926;-79
2024/04/12 08:22:03;;;;;;;;;;;15.20;85.60;;;;;;4724047;30;20318;-77
2024/04/12 08:24:29;;;;;;;;;;;15.30;85.20;;;;;;4747036;30;19922;-77
2024/04/12 08:26:57;;;;;;;;;;;15.40;84.80;;;;;;4745777;30;19926;-79
2024/04/12 08:29:29;;;;;;;;;;;15.30;84.40;;;;;;4745180;30;19926;-76
2024/04/12 08:32:28;;;;;;;;;;;15.30;84.10;;;;;;4731040;30;20002;-76
2024/04/12 08:34:49;;;;;;;;;;;15.30;84.10;;;;;;4740303;30;19930;-79
2024/04/12 08:37:18;;;;;;;;;;;15.30;84.10;;;;;;4733001;30;19994;-70
2024/04/12 08:39:44;;;;;;;;;;;15.30;83.90;;;;;;4724590;30;19931;-74
2024/04/12 08:42:11;;;;;;;;;;;15.30;84.00;;;;;;4734109;30;19922;-80
2024/04/12 08:44:37;;;;;;;;;;;15.30;84.10;;;;;;4749230;30;20394;-73
2024/04/12 08:47:16;;;;;;;;;;;15.40;84.30;;;;;;4723143;30;19969;-80
2024/04/12 08:49:47;;;;;;;;;;;15.50;83.80;;;;;;4724922;30;19952;-81
2024/04/12 08:52:24;;;;;;;;;;;15.50;83.90;;;;;;4731206;30;19926;-81
2024/04/12 08:54:54;;;;;;;;;;;15.60;83.80;;;;;;4716058;30;20058;-78
2024/04/12 08:57:21;;;;;;;;;;;15.70;84.20;;;;;;4728656;30;19934;-74
2024/04/12 08:59:46;;;;;;;;;;;15.80;84.00;;;;;;4746226;30;19922;-75
2024/04/12 09:02:13;;;;;;;;;;;15.90;83.40;;;;;;4724048;30;19960;-76
2024/04/12 09:04:39;;;;;;;;;;;15.90;83.80;;;;;;4723679;30;19929;-76
2024/04/12 09:07:05;;;;;;;;;;;16.00;83.60;;;;;;4739421;30;20275;-74
2024/04/12 09:09:31;;;;;;;;;;;16.10;83.60;;;;;;4731387;30;19930;-79
2024/04/12 09:11:57;;;;;;;;;;;16.20;83.40;;;;;;4721505;30;19926;-81
2024/04/12 09:14:26;;;;;;;;;;;16.30;83.30;;;;;;4724184;30;20406;-78
2024/04/12 09:17:06;;;;;;;;;;;16.40;83.20;;;;;;4726166;30;19933;-76
2024/04/12 09:19:38;;;;;;;;;;;16.50;83.10;;;;;;4743931;30;20469;-80
2024/04/12 09:22:09;;;;;;;;;;;16.50;83.10;;;;;;4737394;30;19930;-76
2024/04/12 09:24:39;;;;;;;;;;;16.50;82.90;;;;;;4729850;30;19929;-79
2024/04/12 09:27:09;;;;;;;;;;;16.60;82.80;;;;;;4721577;30;19932;-79
2024/04/12 09:29:45;;;;;;;;;;;16.70;83.10;;;;;;4729730;30;20028;-76
2024/04/12 09:34:55;;;;;;;;;;;17.20;82.50;;;;;;4744537;30;20082;-79
2024/04/12 09:37:38;;;;;;;;;;;17.30;82.70;;;;;;4728974;30;19935;-78
2024/04/12 09:40:16;;;;;;;;;;;17.20;81.90;;;;;;4722303;30;19930;-77
2024/04/12 09:45:28;;;;;;;;;;;17.10;81.50;;;;;;4749464;30;20008;-81
2024/04/12 10:37:46;;;;;;;;;;;18.00;81.30;;;;;;4765272;30;20078;-78
2024/04/12 10:40:11;;;;;;;;;;;18.20;81.50;;;;;;4750200;30;20323;-79
2024/04/12 10:42:37;;;;;;;;;;;18.30;80.60;;;;;;4748776;30;20397;-80
2024/04/12 10:45:07;;;;;;;;;;;18.40;80.80;;;;;;4751135;30;20370;-83
2024/04/12 10:47:39;;;;;;;;;;;18.40;80.30;;;;;;4751883;30;19996;-75
2024/04/12 10:50:05;;;;;;;;;;;18.40;80.20;;;;;;4750365;30;19941;-74
2024/04/12 10:52:30;;;;;;;;;;;18.50;79.70;;;;;;4750082;30;19929;-72
2024/04/12 10:54:56;;;;;;;;;;;18.70;80.00;;;;;;4766759;29;20309;-78
2024/04/12 10:57:27;;;;;;;;;;;18.90;79.90;;;;;;4766478;29;19938;-79
2024/04/12 10:59:54;;;;;;;;;;;19.00;79.40;;;;;;4735804;30;20004;-78
2024/04/12 11:02:21;;;;;;;;;;;19.10;78.90;;;;;;4751845;30;19926;-79
2024/04/12 11:05:05;;;;;;;;;;;19.20;78.90;;;;;;4750745;30;20459;-77
2024/04/12 11:07:31;;;;;;;;;;;19.30;78.80;;;;;;4758523;29;20426;-79
2024/04/12 11:10:03;;;;;;;;;;;19.20;77.40;;;;;;4745333;30;19925;-78
2024/04/12 11:12:29;;;;;;;;;;;19.30;76.20;;;;;;4766975;29;19926;-79
2024/04/12 11:15:13;;;;;;;;;;;19.30;74.30;;;;;;4755361;30;19929;-78
2024/04/12 11:31:27;;;;;;;;;;;19.20;73.30;;;;;;4751427;30;19937;-77
2024/04/12 11:33:52;;;;;;;;;;;19.10;72.30;;;;;;4748339;30;20461;-77
2024/04/12 11:36:21;;;;;;;;;;;19.10;72.70;;;;;;4753221;30;19980;-78
2024/04/12 11:38:48;;;;;;;;;;;19.10;72.80;;;;;;4751803;30;19925;-77
2024/04/12 11:41:15;;;;;;;;;;;19.20;73.20;;;;;;4747209;30;20027;-78
2024/04/12 11:43:47;;;;;;;;;;;19.40;73.60;;;;;;4735677;30;19933;-78
2024/04/12 11:46:16;;;;;;;;;;;19.50;73.90;;;;;;4760316;30;20009;-79
2024/04/12 11:48:43;;;;;;;;;;;19.70;73.30;;;;;;4738055;30;19925;-78
2024/04/12 11:51:09;;;;;;;;;;;19.80;74.10;;;;;;4754514;30;19949;-79
2024/04/12 11:53:35;;;;;;;;;;;20.00;73.60;;;;;;4754990;30;19925;-78
2024/04/12 11:56:01;;;;;;;;;;;20.00;74.30;;;;;;4754597;30;19932;-80
2024/04/12 11:58:28;;;;;;;;;;;20.10;73.90;;;;;;4754846;30;19958;-79
2024/04/12 12:00:54;;;;;;;;;;;20.20;72.80;;;;;;4755234;30;19921;-80
2024/04/12 12:03:20;;;;;;;;;;;20.20;73.20;;;;;;4755376;30;20335;-79
2024/04/12 12:05:46;;;;;;;;;;;20.30;73.20;;;;;;4753897;30;19922;-77
2024/04/12 12:08:13;;;;;;;;;;;20.40;72.90;;;;;;4741895;30;19977;-79
2024/04/12 12:10:39;;;;;;;;;;;20.40;72.70;;;;;;4769636;30;19928;-78
2024/04/12 12:13:05;;;;;;;;;;;20.40;72.80;;;;;;4747200;30;20297;-77
2024/04/12 12:15:30;;;;;;;;;;;20.40;72.60;;;;;;4756412;30;19930;-79
2024/04/12 12:17:56;;;;;;;;;;;20.30;72.40;;;;;;4757463;30;19934;-78
2024/04/12 12:20:22;;;;;;;;;;;20.30;72.60;;;;;;4756520;30;19930;-78
2024/04/12 12:22:48;;;;;;;;;;;20.30;72.90;;;;;;4753551;30;20017;-78
2024/04/12 12:25:14;;;;;;;;;;;20.40;72.90;;;;;;4754250;30;19930;-80
2024/04/12 12:27:40;;;;;;;;;;;20.30;72.40;;;;;;4767995;30;20288;-79
2024/04/12 12:30:14;;;;;;;;;;;20.30;72.50;;;;;;4752134;30;19948;-79
2024/04/12 12:32:44;;;;;;;;;;;20.20;72.40;;;;;;4751716;30;19929;-78
2024/04/12 12:35:18;;;;;;;;;;;20.30;72.80;;;;;;4754899;30;19929;-89
2024/04/12 12:37:51;;;;;;;;;;;20.30;73.00;;;;;;4756888;30;19936;-82
2024/04/12 12:40:18;;;;;;;;;;;20.30;72.90;;;;;;4759750;30;19926;-90
2024/04/12 12:42:46;;;;;;;;;;;20.30;73.10;;;;;;4775292;30;19929;-91
2024/04/12 12:45:13;;;;;;;;;;;20.20;73.50;;;;;;4759981;30;20026;-91
2024/04/12 12:47:38;;;;;;;;;;;20.20;72.90;;;;;;4759808;30;19941;-93
2024/04/12 12:50:04;;;;;;;;;;;20.30;73.70;;;;;;4754614;30;19973;-85
2024/04/12 12:52:32;;;;;;;;;;;20.40;72.20;;;;;;4753811;30;20306;-87
2024/04/12 12:55:00;;;;;;;;;;;20.40;72.90;;;;;;4752808;30;19925;-89
2024/04/12 12:57:25;;;;;;;;;;;20.60;73.60;;;;;;4755693;30;19976;-90
2024/04/12 12:59:54;;;;;;;;;;;20.60;72.80;;;;;;4750115;30;20055;-89
2024/04/12 13:02:19;;;;;;;;;;;20.70;73.50;;;;;;4758179;30;20051;-93
2024/04/12 13:04:48;;;;;;;;;;;20.70;73.50;;;;;;4758498;30;20476;-82
2024/04/12 13:07:16;;;;;;;;;;;20.80;73.50;;;;;;4741312;30;19929;-86
2024/04/12 13:09:42;;;;;;;;;;;20.90;72.70;;;;;;4756237;30;19937;-86
2024/04/12 13:12:11;;;;;;;;;;;21.10;73.30;;;;;;4754796;30;19944;-90
2024/04/12 13:14:37;;;;;;;;;;;21.20;72.70;;;;;;4761383;30;19932;-90
2024/04/12 13:17:11;;;;;;;;;;;21.30;71.70;;;;;;4754943;30;19929;-86
2024/04/12 13:19:38;;;;;;;;;;;21.40;71.90;;;;;;4741568;30;19978;-86
2024/04/12 13:22:04;;;;;;;;;;;21.60;71.90;;;;;;4757140;30;20002;-85
2024/04/12 13:24:30;;;;;;;;;;;21.70;71.80;;;;;;4742537;30;19922;-92
2024/04/12 13:26:59;;;;;;;;;;;21.80;71.30;;;;;;4755439;30;19974;-89
2024/04/12 13:29:29;;;;;;;;;;;21.90;70.90;;;;;;4766075;30;19929;-90
2024/04/12 13:31:57;;;;;;;;;;;22.00;71.70;;;;;;4770456;29;19928;-89
2024/04/12 13:34:23;;;;;;;;;;;22.00;70.40;;;;;;4754075;29;19938;-84
2024/04/12 13:36:53;;;;;;;;;;;22.00;70.80;;;;;;4733130;30;19928;-81
2024/04/12 13:39:19;;;;;;;;;;;22.20;70.80;;;;;;4749388;30;19968;-82
2024/04/12 13:41:45;;;;;;;;;;;22.30;71.00;;;;;;4753740;30;20518;-92
2024/04/12 13:44:24;;;;;;;;;;;22.40;70.80;;;;;;4772095;30;20008;-91
2024/04/12 13:52:23;;;;;;;;;;;22.60;70.90;;;;;;4774557;29;19974;-84
2024/04/12 13:54:50;;;;;;;;;;;22.60;71.00;;;;;;4748760;30;20440;-89
2024/04/12 13:57:17;;;;;;;;;;;22.50;71.00;;;;;;4760535;30;20345;-89
2024/04/12 13:59:44;;;;;;;;;;;22.30;70.60;;;;;;4755091;30;19987;-90
2024/04/12 14:02:09;;;;;;;;;;;22.10;70.20;;;;;;4765197;30;20410;-92
2024/04/12 14:04:38;;;;;;;;;;;22.10;70.80;;;;;;4762952;30;19921;-91
2024/04/12 14:07:04;;;;;;;;;;;22.10;70.50;;;;;;4754309;30;19965;-88
2024/04/12 14:09:30;;;;;;;;;;;22.40;70.70;;;;;;4748243;30;20443;-86
2024/04/12 14:11:56;;;;;;;;;;;22.50;70.20;;;;;;4752433;30;19957;-89
2024/04/12 14:14:23;;;;;;;;;;;22.70;69.40;;;;;;4754943;30;20401;-87
2024/04/12 14:16:51;;;;;;;;;;;23.00;69.30;;;;;;4753067;30;19926;-90
2024/04/12 14:19:20;;;;;;;;;;;23.30;69.20;;;;;;4756512;30;19986;-88
2024/04/12 14:21:52;;;;;;;;;;;23.50;69.00;;;;;;4746951;30;19935;-91
2024/04/12 14:27:03;;;;;;;;;;;23.80;69.10;;;;;;4754928;30;19979;-84
2024/04/12 14:29:30;;;;;;;;;;;24.00;69.10;;;;;;4764568;29;19937;-77
2024/04/12 14:31:56;;;;;;;;;;;24.30;69.10;;;;;;4758064;30;19933;-74
2024/04/12 14:34:21;;;;;;;;;;;24.40;68.30;;;;;;4750113;30;20389;-77
2024/04/12 14:36:47;;;;;;;;;;;24.20;68.00;;;;;;4735737;30;20163;-74
2024/04/12 14:39:15;;;;;;;;;;;24.30;68.50;;;;;;4748545;30;20702;-73
2024/04/12 14:41:41;;;;;;;;;;;24.30;68.60;;;;;;4748838;30;19930;-73
2024/04/12 14:44:07;;;;;;;;;;;24.30;68.40;;;;;;4746834;30;19941;-73
2024/04/12 14:46:34;;;;;;;;;;;24.00;67.70;;;;;;4753202;30;20305;-72
2024/04/12 14:49:00;;;;;;;;;;;23.50;67.80;;;;;;4739208;30;19936;-76
2024/04/12 14:51:27;;;;;;;;;;;23.10;68.30;;;;;;4755585;30;20166;-74
2024/04/12 14:53:53;;;;;;;;;;;22.70;68.50;;;;;;4740137;30;19972;-74
2024/04/12 14:56:22;;;;;;;;;;;22.40;68.70;;;;;;4755574;30;19972;-73
2024/04/12 14:58:49;;;;;;;;;;;22.20;68.50;;;;;;4750588;30;19995;-75
2024/04/12 15:01:15;;;;;;;;;;;22.10;68.80;;;;;;4754472;30;19925;-70
2024/04/12 15:50:26;;;;;;;;;;;20.20;71.20;;;;;;4753193;30;19950;-76
2024/04/12 16:12:03;;;;;;;;;;;19.50;72.00;;;;;;4752769;30;20396;-76
2024/04/12 16:14:29;;;;;;;;;;;19.40;71.90;;;;;;4752811;30;19925;-76
2024/04/12 16:16:55;;;;;;;;;;;19.30;72.00;;;;;;4752166;30;20171;-76
2024/04/12 16:19:21;;;;;;;;;;;19.30;71.90;;;;;;4750991;30;20463;-76
2024/04/12 16:21:47;;;;;;;;;;;19.10;72.00;;;;;;4769018;29;19926;-76
2024/04/12 16:24:13;;;;;;;;;;;19.10;72.00;;;;;;4754586;30;19953;-76
2024/04/12 16:26:39;;;;;;;;;;;19.00;72.00;;;;;;4756072;30;20179;-75
2024/04/12 16:29:07;;;;;;;;;;;18.90;72.30;;;;;;4769371;29;19945;-75
2024/04/12 16:31:33;;;;;;;;;;;18.90;72.60;;;;;;4739001;30;19995;-75
2024/04/12 16:33:59;;;;;;;;;;;19.00;72.70;;;;;;4767043;29;20028;-75
2024/04/12 16:36:24;;;;;;;;;;;18.90;72.80;;;;;;4753044;30;19932;-75
2024/04/12 16:38:51;;;;;;;;;;;18.90;72.90;;;;;;4753245;30;19933;-75
2024/04/12 16:41:18;;;;;;;;;;;18.90;73.00;;;;;;4754877;30;19925;-75
2024/04/12 16:43:45;;;;;;;;;;;18.80;73.00;;;;;;4768875;30;19930;-76
2024/04/12 16:46:11;;;;;;;;;;;18.80;72.90;;;;;;4754992;30;19922;-76
2024/04/12 16:48:37;;;;;;;;;;;18.80;73.00;;;;;;4753227;30;19940;-76
2024/04/12 16:51:03;;;;;;;;;;;18.70;73.20;;;;;;4767885;30;19929;-76
2024/04/12 16:53:31;;;;;;;;;;;18.60;73.20;;;;;;4752255;30;19936;-76
2024/04/12 16:56:00;;;;;;;;;;;18.60;73.60;;;;;;4745837;30;19971;-75
2024/04/12 16:58:26;;;;;;;;;;;18.50;73.60;;;;;;4738992;30;20016;-76
2024/04/12 17:00:51;;;;;;;;;;;18.50;73.70;;;;;;4739622;30;20658;-76
2024/04/12 17:03:17;;;;;;;;;;;18.50;73.90;;;;;;4754283;30;19929;-76
2024/04/12 17:05:45;;;;;;;;;;;18.40;74.00;;;;;;4753521;30;19922;-76
2024/04/12 17:08:10;;;;;;;;;;;18.30;74.00;;;;;;4771077;29;19922;-76
2024/04/12 17:10:37;;;;;;;;;;;18.20;74.30;;;;;;4754717;30;19930;-78
2024/04/12 17:13:04;;;;;;;;;;;18.20;74.50;;;;;;4767454;29;19925;-78
2024/04/12 17:15:30;;;;;;;;;;;18.10;74.60;;;;;;4741579;30;19929;-78
2024/04/12 17:17:58;;;;;;;;;;;18.00;74.70;;;;;;4741286;30;19930;-81
2024/04/12 17:20:24;;;;;;;;;;;17.90;74.80;;;;;;4753586;30;20341;-86
2024/04/12 17:22:50;;;;;;;;;;;17.80;75.00;;;;;;4752914;30;19985;-90
2024/04/12 17:26:10;;;;;;;;;;;;;;;;;;;;;
2024/04/12 17:29:21;;;;;;;;;;;;;;;;;;;;;
